createdAt,value
2018-10-12T00:02:22.392Z,91.40
2018-10-12T00:04:50.893Z,91.40
2018-10-12T00:07:19.294Z,91.50
2018-10-12T00:09:47.709Z,91.50
2018-10-12T00:12:16.225Z,91.60
2018-10-12T00:14:44.675Z,91.50
2018-10-12T00:17:13.072Z,91.60
2018-10-12T00:19:41.655Z,91.70
2018-10-12T00:22:10.102Z,91.80
2018-10-12T00:24:38.532Z,91.70
2018-10-12T00:27:07.348Z,91.70
2018-10-12T00:29:36.036Z,91.80
2018-10-12T00:32:04.542Z,91.80
2018-10-12T00:34:32.995Z,91.70
2018-10-12T00:37:01.438Z,91.70
2018-10-12T00:39:29.879Z,91.70
2018-10-12T00:41:58.320Z,91.80
2018-10-12T00:44:27.117Z,91.70
2018-10-12T00:46:55.601Z,91.60
2018-10-12T00:49:24.111Z,91.40
2018-10-12T00:51:52.626Z,91.40
2018-10-12T00:54:21.146Z,91.30
2018-10-12T00:56:49.621Z,91.30
2018-10-12T00:59:18.146Z,91.20
2018-10-12T01:01:46.594Z,91.40
2018-10-12T01:04:15.106Z,91.30
2018-10-12T01:06:43.690Z,91.20
2018-10-12T01:09:12.203Z,91.20
2018-10-12T01:11:40.779Z,91.30
2018-10-12T01:14:09.457Z,91.30
2018-10-12T01:16:37.942Z,91.20
2018-10-12T01:19:06.531Z,91.20
2018-10-12T01:21:34.958Z,91.10
2018-10-12T01:24:03.594Z,91.10
2018-10-12T01:26:32.172Z,91.10
2018-10-12T01:29:00.710Z,91.20
2018-10-12T01:31:29.201Z,91.30
2018-10-12T01:33:57.741Z,91.40
2018-10-12T01:36:26.196Z,91.40
2018-10-12T01:38:54.565Z,91.30
2018-10-12T01:41:23.017Z,91.30
2018-10-12T01:43:51.474Z,91.40
2018-10-12T01:46:19.890Z,91.30
2018-10-12T01:48:48.474Z,91.30
2018-10-12T01:51:16.946Z,91.50
2018-10-12T01:53:45.413Z,91.50
2018-10-12T01:56:13.944Z,91.60
2018-10-12T01:58:42.512Z,91.40
2018-10-12T02:01:10.944Z,91.20
2018-10-12T02:03:39.556Z,90.90
2018-10-12T02:06:08.088Z,90.80
2018-10-12T02:08:36.488Z,90.70
2018-10-12T02:11:05.206Z,90.80
2018-10-12T02:13:33.661Z,90.90
2018-10-12T02:16:02.159Z,90.80
2018-10-12T02:18:30.549Z,90.80
2018-10-12T02:20:59.177Z,90.80
2018-10-12T02:23:27.557Z,90.80
2018-10-12T02:25:56.155Z,90.70
2018-10-12T02:28:24.691Z,90.70
2018-10-12T02:30:53.217Z,90.90
2018-10-12T02:33:21.718Z,90.90
2018-10-12T02:35:50.320Z,90.90
2018-10-12T02:38:18.867Z,90.90
2018-10-12T02:40:47.504Z,90.80
2018-10-12T02:43:16.048Z,90.60
2018-10-12T02:45:44.651Z,90.60
2018-10-12T02:48:13.118Z,90.60
2018-10-12T02:50:41.616Z,90.60
2018-10-12T02:53:10.102Z,90.60
2018-10-12T02:55:38.575Z,90.70
2018-10-12T02:58:07.043Z,90.60
2018-10-12T03:00:35.562Z,90.60
2018-10-12T03:03:04.084Z,90.60
2018-10-12T03:05:32.512Z,90.60
2018-10-12T03:08:00.985Z,90.50
2018-10-12T03:10:29.469Z,90.60
2018-10-12T03:12:57.971Z,90.90
2018-10-12T03:15:26.505Z,90.60
2018-10-12T03:17:54.957Z,90.50
2018-10-12T03:20:23.497Z,90.60
2018-10-12T03:22:51.973Z,90.80
2018-10-12T03:25:20.494Z,90.70
2018-10-12T03:28:00.231Z,90.80
2018-10-12T03:30:28.658Z,90.90
2018-10-12T03:32:57.279Z,91.00
2018-10-12T03:35:25.770Z,91.00
2018-10-12T03:37:54.377Z,90.90
2018-10-12T03:40:22.941Z,91.00
2018-10-12T03:42:51.419Z,91.00
2018-10-12T03:45:19.823Z,90.90
2018-10-12T03:47:48.357Z,90.80
2018-10-12T03:50:17.003Z,90.90
2018-10-12T03:52:45.538Z,90.80
2018-10-12T03:55:14.069Z,91.00
2018-10-12T03:57:42.544Z,90.90
2018-10-12T04:00:11.087Z,90.90
2018-10-12T04:02:39.667Z,90.80
2018-10-12T04:05:08.058Z,90.90
2018-10-12T04:07:36.537Z,91.00
2018-10-12T04:10:05.013Z,91.00
2018-10-12T04:12:33.500Z,91.10
2018-10-12T04:15:01.981Z,91.10
2018-10-12T04:17:30.480Z,91.20
2018-10-12T04:19:59.153Z,91.20
2018-10-12T04:22:27.645Z,91.30
2018-10-12T04:24:56.021Z,91.30
2018-10-12T04:27:24.551Z,91.40
2018-10-12T04:29:53.031Z,91.40
2018-10-12T04:32:21.457Z,91.50
2018-10-12T04:34:50.013Z,91.50
2018-10-12T04:37:18.747Z,91.50
2018-10-12T04:39:55.796Z,91.70
2018-10-12T04:42:24.218Z,91.80
2018-10-12T04:44:52.965Z,91.90
2018-10-12T04:47:22.970Z,92.10
2018-10-12T04:49:51.477Z,92.10
2018-10-12T04:52:19.953Z,92.10
2018-10-12T04:54:48.432Z,92.20
2018-10-12T04:57:16.960Z,92.30
2018-10-12T04:59:45.385Z,92.40
2018-10-12T05:02:13.909Z,92.30
2018-10-12T05:04:42.493Z,92.30
2018-10-12T05:07:11.076Z,92.30
2018-10-12T05:09:39.644Z,92.30
2018-10-12T05:12:09.244Z,92.40
2018-10-12T05:14:37.925Z,92.30
2018-10-12T05:17:06.431Z,92.50
2018-10-12T05:19:34.822Z,92.50
2018-10-12T05:22:03.487Z,92.40
2018-10-12T05:24:31.949Z,92.30
2018-10-12T05:27:00.487Z,92.50
2018-10-12T05:29:29.152Z,92.40
2018-10-12T05:31:57.583Z,92.40
2018-10-12T05:34:26.191Z,92.40
2018-10-12T05:36:54.821Z,92.50
2018-10-12T05:39:23.321Z,92.50
2018-10-12T05:41:51.826Z,92.50
2018-10-12T05:44:20.299Z,92.60
2018-10-12T05:46:48.867Z,92.80
2018-10-12T05:49:28.602Z,92.50
2018-10-12T05:51:57.152Z,92.60
2018-10-12T05:54:25.665Z,92.50
2018-10-12T05:56:54.251Z,92.60
2018-10-12T05:59:22.743Z,92.60
2018-10-12T06:01:51.205Z,92.60
2018-10-12T06:04:19.641Z,92.70
2018-10-12T06:06:48.151Z,92.70
2018-10-12T06:09:17.088Z,92.60
2018-10-12T06:11:45.649Z,92.70
2018-10-12T06:14:14.119Z,92.70
2018-10-12T06:16:42.609Z,92.70
2018-10-12T06:19:11.050Z,92.80
2018-10-12T06:21:39.477Z,92.80
2018-10-12T06:24:08.036Z,92.70
2018-10-12T06:26:36.515Z,92.70
2018-10-12T06:29:04.976Z,92.80
2018-10-12T06:31:33.497Z,92.70
2018-10-12T06:34:02.068Z,92.70
2018-10-12T06:36:30.577Z,92.80
2018-10-12T06:38:59.084Z,92.80
2018-10-12T06:41:27.614Z,93.00
2018-10-12T06:43:56.220Z,93.10
2018-10-12T06:46:24.683Z,93.20
2018-10-12T06:48:53.016Z,93.20
2018-10-12T06:51:21.477Z,93.20
2018-10-12T06:53:49.915Z,93.20
2018-10-12T06:56:18.369Z,93.20
2018-10-12T06:58:46.837Z,93.20
2018-10-12T07:01:15.277Z,93.20
2018-10-12T07:03:43.997Z,93.20
2018-10-12T07:06:12.721Z,93.30
2018-10-12T07:08:41.306Z,93.30
2018-10-12T07:11:10.180Z,93.30
2018-10-12T07:13:38.762Z,93.30
2018-10-12T07:16:07.337Z,93.30
2018-10-12T07:18:35.890Z,93.60
2018-10-12T07:21:04.972Z,93.60
2018-10-12T07:23:33.487Z,94.00
2018-10-12T07:26:01.978Z,93.70
2018-10-12T07:28:30.333Z,93.70
2018-10-12T07:30:58.740Z,93.70
2018-10-12T07:33:27.262Z,93.90
2018-10-12T07:35:55.778Z,93.80
2018-10-12T07:38:24.301Z,94.00
2018-10-12T07:40:52.721Z,94.20
2018-10-12T07:43:21.225Z,94.20
2018-10-12T07:45:49.743Z,94.10
2018-10-12T07:48:18.388Z,94.10
2018-10-12T07:50:46.838Z,93.80
2018-10-12T07:53:15.340Z,93.70
2018-10-12T07:55:43.802Z,93.40
2018-10-12T07:58:12.293Z,93.50
2018-10-12T08:00:40.769Z,93.90
2018-10-12T08:03:09.501Z,93.70
2018-10-12T08:05:38.185Z,94.10
2018-10-12T08:08:06.546Z,93.90
2018-10-12T08:10:34.963Z,93.90
2018-10-12T08:13:03.402Z,93.50
2018-10-12T08:15:31.861Z,93.20
2018-10-12T08:18:00.433Z,93.10
2018-10-12T08:20:28.930Z,93.10
2018-10-12T08:22:57.434Z,93.00
2018-10-12T08:25:25.977Z,92.40
2018-10-12T08:27:54.435Z,92.20
2018-10-12T08:30:22.942Z,92.50
2018-10-12T08:32:51.417Z,92.60
2018-10-12T08:35:20.448Z,92.40
2018-10-12T08:37:48.948Z,92.40
2018-10-12T08:40:17.402Z,92.00
2018-10-12T08:42:45.861Z,92.10
2018-10-12T08:45:14.252Z,92.20
2018-10-12T08:47:42.844Z,92.20
2018-10-12T08:50:11.480Z,91.90
2018-10-12T08:52:40.247Z,91.70
2018-10-12T08:55:08.803Z,92.30
2018-10-12T08:57:37.237Z,92.00
2018-10-12T09:00:05.588Z,91.60
2018-10-12T09:02:34.288Z,91.30
2018-10-12T09:05:02.801Z,91.20
2018-10-12T09:07:32.241Z,90.90
2018-10-12T09:10:00.889Z,90.80
2018-10-12T09:12:29.346Z,91.00
2018-10-12T09:14:57.817Z,91.00
2018-10-12T09:17:26.333Z,90.60
2018-10-12T09:19:54.744Z,91.30
2018-10-12T09:22:23.466Z,91.10
2018-10-12T09:24:52.584Z,90.70
2018-10-12T09:27:21.038Z,90.90
2018-10-12T09:29:49.561Z,91.10
2018-10-12T09:32:18.077Z,90.60
2018-10-12T09:34:46.605Z,90.50
2018-10-12T09:37:15.141Z,90.30
2018-10-12T09:39:43.709Z,90.30
2018-10-12T09:42:12.188Z,90.10
2018-10-12T09:44:40.560Z,90.00
2018-10-12T09:47:09.108Z,89.20
2018-10-12T09:49:37.583Z,88.70
2018-10-12T09:52:06.002Z,88.50
2018-10-12T09:54:35.504Z,88.20
2018-10-12T09:57:09.174Z,88.10
2018-10-12T09:59:37.566Z,88.40
2018-10-12T10:02:11.463Z,87.50
2018-10-12T10:04:39.905Z,87.20
2018-10-12T10:07:08.393Z,85.80
2018-10-12T10:09:36.849Z,84.70
2018-10-12T10:12:05.334Z,84.50
2018-10-12T10:14:33.788Z,84.50
2018-10-12T10:17:02.269Z,84.00
2018-10-12T10:19:30.708Z,83.10
2018-10-12T10:21:59.237Z,82.00
2018-10-12T10:24:28.112Z,82.40
2018-10-12T10:26:57.363Z,81.70
2018-10-12T10:29:26.033Z,82.20
2018-10-12T10:31:54.316Z,82.30
2018-10-12T10:34:22.809Z,81.70
2018-10-12T10:36:53.891Z,81.50
2018-10-12T10:39:22.888Z,82.10
2018-10-12T10:41:53.029Z,81.40
2018-10-12T10:44:21.395Z,82.00
2018-10-12T10:46:50.421Z,81.80
2018-10-12T10:49:19.082Z,81.40
2018-10-12T10:51:47.528Z,78.70
2018-10-12T10:54:15.930Z,78.30
2018-10-12T10:56:44.297Z,79.10
2018-10-12T10:59:12.700Z,77.20
2018-10-12T11:01:41.350Z,76.80
2018-10-12T11:04:09.840Z,75.60
2018-10-12T11:06:38.350Z,75.70
2018-10-12T11:09:08.408Z,74.80
2018-10-12T11:11:36.948Z,74.10
2018-10-12T11:14:05.413Z,73.70
2018-10-12T11:16:33.771Z,72.00
2018-10-12T11:19:02.476Z,71.50
2018-10-12T11:21:30.925Z,71.20
2018-10-12T11:23:59.356Z,70.60
2018-10-12T11:26:27.835Z,70.00
2018-10-12T11:28:56.090Z,70.10
2018-10-12T11:31:24.504Z,70.30
2018-10-12T11:33:52.923Z,70.70
2018-10-12T11:36:21.400Z,69.80
2018-10-12T11:38:49.865Z,69.30
2018-10-12T11:41:18.229Z,68.50
2018-10-12T11:43:46.672Z,67.90
2018-10-12T11:46:15.060Z,67.60
2018-10-12T11:48:43.567Z,68.30
2018-10-12T11:51:12.045Z,68.90
2018-10-12T11:53:40.543Z,68.00
2018-10-12T11:56:09.025Z,68.20
2018-10-12T11:58:37.472Z,68.10
2018-10-12T12:01:06.259Z,68.00
2018-10-12T12:03:34.486Z,67.50
2018-10-12T12:06:02.973Z,67.40
2018-10-12T12:08:31.468Z,66.50
2018-10-12T12:10:59.990Z,66.50
2018-10-12T12:13:28.477Z,66.30
2018-10-12T12:15:56.965Z,65.80
2018-10-12T12:18:25.430Z,66.00
2018-10-12T12:20:54.078Z,65.40
2018-10-12T12:23:22.538Z,65.30
2018-10-12T12:25:50.972Z,65.60
2018-10-12T12:28:19.541Z,65.50
2018-10-12T12:30:47.905Z,64.90
2018-10-12T12:33:16.337Z,64.60
2018-10-12T12:35:45.106Z,64.50
2018-10-12T12:38:13.181Z,64.30
2018-10-12T12:40:41.545Z,64.40
2018-10-12T12:43:09.970Z,65.20
2018-10-12T12:45:38.477Z,65.00
2018-10-12T12:48:07.043Z,64.60
2018-10-12T12:50:35.441Z,64.60
2018-10-12T12:53:03.892Z,65.10
2018-10-12T12:55:32.392Z,64.40
2018-10-12T12:58:00.828Z,64.40
2018-10-12T13:00:29.298Z,63.70
2018-10-12T13:02:57.764Z,64.10
2018-10-12T13:05:26.242Z,64.90
2018-10-12T13:07:54.681Z,63.70
2018-10-12T13:10:23.136Z,63.30
2018-10-12T13:12:51.530Z,64.10
2018-10-12T13:15:19.937Z,64.90
2018-10-12T13:17:48.503Z,65.80
2018-10-12T13:20:16.913Z,66.20
2018-10-12T13:22:45.407Z,67.50
2018-10-12T13:25:13.894Z,67.80
2018-10-12T13:27:42.292Z,67.20
2018-10-12T13:30:10.728Z,67.80
2018-10-12T13:32:39.120Z,68.10
2018-10-12T13:35:07.764Z,68.40
2018-10-12T13:37:36.300Z,69.00
2018-10-12T13:40:04.749Z,68.40
2018-10-12T13:42:32.985Z,68.50
2018-10-12T13:45:01.457Z,69.10
2018-10-12T13:47:29.900Z,69.10
2018-10-12T13:49:58.372Z,69.70
2018-10-12T13:52:26.840Z,69.30
2018-10-12T13:54:55.364Z,69.30
2018-10-12T13:57:23.818Z,69.40
2018-10-12T13:59:52.254Z,69.40
2018-10-12T14:02:20.779Z,69.90
2018-10-12T14:04:49.225Z,69.40
2018-10-12T14:07:17.704Z,69.40
2018-10-12T14:09:46.157Z,69.90
2018-10-12T14:12:14.626Z,70.30
2018-10-12T14:14:43.113Z,70.90
2018-10-12T14:17:11.498Z,69.90
2018-10-12T14:19:39.889Z,70.50
2018-10-12T14:22:08.337Z,70.80
2018-10-12T14:24:36.774Z,71.40
2018-10-12T14:27:05.202Z,70.70
2018-10-12T14:29:33.690Z,71.30
2018-10-12T14:32:02.173Z,71.50
2018-10-12T14:34:30.687Z,71.60
2018-10-12T14:36:59.052Z,71.80
2018-10-12T14:39:27.488Z,72.00
2018-10-12T14:41:55.888Z,72.60
2018-10-12T14:44:24.475Z,72.70
2018-10-12T14:46:52.730Z,72.50
2018-10-12T14:49:21.233Z,72.80
2018-10-12T14:51:49.667Z,72.70
2018-10-12T14:54:18.200Z,72.90
2018-10-12T14:56:46.618Z,72.80
2018-10-12T14:59:15.265Z,72.80
2018-10-12T15:01:43.797Z,73.40
2018-10-12T15:04:12.997Z,73.20
2018-10-12T15:06:41.584Z,73.30
2018-10-12T15:09:12.059Z,73.30
2018-10-12T15:11:40.525Z,73.30
2018-10-12T15:14:09.048Z,73.40
2018-10-12T15:16:37.581Z,73.70
2018-10-12T15:19:06.357Z,73.80
2018-10-12T15:21:34.891Z,73.50
2018-10-12T15:24:03.186Z,73.60
2018-10-12T15:26:31.634Z,74.00
2018-10-12T15:29:00.160Z,73.80
2018-10-12T15:31:28.682Z,74.00
2018-10-12T15:33:57.126Z,74.60
2018-10-12T15:36:25.637Z,74.60
2018-10-12T15:38:54.111Z,74.00
2018-10-12T15:41:22.605Z,74.40
2018-10-12T15:43:51.012Z,74.60
2018-10-12T15:46:19.523Z,74.90
2018-10-12T15:48:47.955Z,75.20
2018-10-12T15:51:16.657Z,75.20
2018-10-12T15:53:45.024Z,75.50
2018-10-12T15:56:13.582Z,75.40
2018-10-12T15:58:42.030Z,75.70
2018-10-12T16:01:10.436Z,75.80
2018-10-12T16:03:38.864Z,75.80
2018-10-12T16:06:07.237Z,76.00
2018-10-12T16:08:35.620Z,75.80
2018-10-12T16:11:04.024Z,75.90
2018-10-12T16:13:32.445Z,76.10
2018-10-12T16:16:01.073Z,76.30
2018-10-12T16:18:29.535Z,76.60
2018-10-12T16:20:58.065Z,76.70
2018-10-12T16:23:26.592Z,76.80
2018-10-12T16:26:07.052Z,76.90
2018-10-12T16:28:35.616Z,77.10
2018-10-12T16:31:04.064Z,77.10
2018-10-12T16:33:32.515Z,77.40
2018-10-12T16:36:01.097Z,77.50
2018-10-12T16:38:29.558Z,77.90
2018-10-12T16:40:57.953Z,78.20
2018-10-12T16:43:26.488Z,78.60
2018-10-12T16:45:54.895Z,79.20
2018-10-12T16:48:23.248Z,79.50
2018-10-12T16:50:51.728Z,79.80
2018-10-12T16:53:20.249Z,80.10
2018-10-12T16:55:48.664Z,80.40
2018-10-12T16:58:17.116Z,80.70
2018-10-12T17:00:45.452Z,81.30
2018-10-12T17:03:13.924Z,81.50
2018-10-12T17:05:42.372Z,81.80
2018-10-12T17:08:10.832Z,82.30
2018-10-12T17:10:39.260Z,82.50
2018-10-12T17:13:07.701Z,83.30
2018-10-12T17:15:36.157Z,83.40
2018-10-12T17:18:04.609Z,83.70
2018-10-12T17:20:33.148Z,83.80
2018-10-12T17:23:01.604Z,84.00
2018-10-12T17:25:30.110Z,84.40
2018-10-12T17:27:58.657Z,84.60
2018-10-12T17:30:27.281Z,85.00
2018-10-12T17:32:55.621Z,85.40
2018-10-12T17:35:24.010Z,85.80
2018-10-12T17:37:52.481Z,85.90
2018-10-12T17:40:20.948Z,85.80
2018-10-12T17:42:49.416Z,86.30
2018-10-12T17:45:17.844Z,86.10
2018-10-12T17:47:46.222Z,85.90
2018-10-12T17:50:14.663Z,85.90
2018-10-12T17:52:43.052Z,86.90
2018-10-12T17:55:11.457Z,85.90
2018-10-12T17:57:39.911Z,86.00
2018-10-12T18:00:09.521Z,86.00
2018-10-12T18:02:38.120Z,86.40
2018-10-12T18:05:07.176Z,86.50
2018-10-12T18:07:35.623Z,87.00
2018-10-12T18:10:05.223Z,87.40
2018-10-12T18:12:33.613Z,87.10
2018-10-12T18:15:02.042Z,87.10
2018-10-12T18:17:30.431Z,87.10
2018-10-12T18:19:58.991Z,87.40
2018-10-12T18:22:27.536Z,87.50
2018-10-12T18:24:55.981Z,87.60
2018-10-12T18:27:24.452Z,87.80
2018-10-12T18:29:52.896Z,88.00
2018-10-12T18:32:21.445Z,88.20
2018-10-12T18:34:50.073Z,88.40
2018-10-12T18:37:19.186Z,88.80
2018-10-12T18:39:48.480Z,88.80
2018-10-12T18:42:17.170Z,89.50
2018-10-12T18:44:45.712Z,89.00
2018-10-12T18:47:14.206Z,88.80
2018-10-12T18:49:42.604Z,88.80
2018-10-12T18:52:11.025Z,88.80
2018-10-12T18:54:39.584Z,88.70
2018-10-12T18:57:08.129Z,88.70
2018-10-12T18:59:36.623Z,88.70
2018-10-12T19:02:05.090Z,88.50
2018-10-12T19:04:33.773Z,88.50
2018-10-12T19:07:02.287Z,88.50
2018-10-12T19:09:30.844Z,88.50
2018-10-12T19:11:59.421Z,88.50
2018-10-12T19:14:27.891Z,88.60
2018-10-12T19:16:56.344Z,89.00
2018-10-12T19:19:24.879Z,89.30
2018-10-12T19:21:53.337Z,89.40
2018-10-12T19:24:21.811Z,89.60
2018-10-12T19:26:50.320Z,89.70
2018-10-12T19:29:18.825Z,90.30
2018-10-12T19:31:47.443Z,90.10
2018-10-12T19:34:15.889Z,90.10
2018-10-12T19:36:44.470Z,90.10
2018-10-12T19:39:13.004Z,90.00
2018-10-12T19:41:41.855Z,90.00
2018-10-12T19:44:10.665Z,89.70
2018-10-12T19:46:39.141Z,89.50
2018-10-12T19:49:07.532Z,89.30
2018-10-12T19:51:36.079Z,89.20
2018-10-12T19:54:04.582Z,89.20
2018-10-12T19:56:38.964Z,89.20
2018-10-12T19:59:07.472Z,89.30
2018-10-12T20:01:35.904Z,88.80
2018-10-12T20:04:04.307Z,88.80
2018-10-12T20:06:34.216Z,88.70
2018-10-12T20:09:03.802Z,88.50
2018-10-12T20:11:32.345Z,88.50
2018-10-12T20:14:00.831Z,88.40
2018-10-12T20:16:29.422Z,88.40
2018-10-12T20:18:59.832Z,88.30
2018-10-12T20:21:28.387Z,88.20
2018-10-12T20:23:57.128Z,88.00
2018-10-12T20:26:31.598Z,88.10
2018-10-12T20:29:00.118Z,88.00
2018-10-12T20:31:28.658Z,88.10
2018-10-12T20:33:57.137Z,88.10
2018-10-12T20:36:26.020Z,87.90
2018-10-12T20:38:54.505Z,88.00
2018-10-12T20:41:24.049Z,87.90
2018-10-12T20:43:54.249Z,87.70
2018-10-12T20:46:22.783Z,87.70
2018-10-12T20:48:51.852Z,87.70
2018-10-12T20:51:20.954Z,87.60
2018-10-12T20:53:49.658Z,87.50
2018-10-12T20:56:18.797Z,87.40
2018-10-12T20:58:47.343Z,87.40
2018-10-12T21:01:16.648Z,87.50
2018-10-12T21:03:45.265Z,87.40
2018-10-12T21:06:14.805Z,87.40
2018-10-12T21:08:43.309Z,87.50
2018-10-12T21:11:11.992Z,87.60
2018-10-12T21:13:40.567Z,87.40
2018-10-12T21:16:09.169Z,87.50
2018-10-12T21:18:37.691Z,87.60
2018-10-12T21:21:06.376Z,87.70
2018-10-12T21:23:35.064Z,87.70
2018-10-12T21:26:03.633Z,87.70
2018-10-12T21:28:32.075Z,88.00
2018-10-12T21:31:00.545Z,88.20
2018-10-12T21:33:28.948Z,88.20
2018-10-12T21:35:57.841Z,88.30
2018-10-12T21:38:26.297Z,89.00
2018-10-12T21:40:54.923Z,88.40
2018-10-12T21:43:23.424Z,88.30
2018-10-12T21:45:51.827Z,88.30
2018-10-12T21:48:20.228Z,88.60
2018-10-12T21:50:49.255Z,88.70
2018-10-12T21:53:17.834Z,88.80
2018-10-12T21:55:46.377Z,89.00
2018-10-12T21:58:14.993Z,89.30
2018-10-12T22:00:47.037Z,89.20
2018-10-12T22:03:15.552Z,89.30
2018-10-12T22:05:43.967Z,89.60
2018-10-12T22:08:16.910Z,89.80
2018-10-12T22:10:45.866Z,90.00
2018-10-12T22:13:16.094Z,90.00
2018-10-12T22:15:45.133Z,90.00
2018-10-12T22:18:13.709Z,90.00
2018-10-12T22:20:42.353Z,90.10
2018-10-12T22:23:10.951Z,90.00
2018-10-12T22:25:39.475Z,90.00
2018-10-12T22:28:07.864Z,90.10
2018-10-12T22:30:36.341Z,90.20
2018-10-12T22:33:04.993Z,90.30
2018-10-12T22:35:33.483Z,90.30
2018-10-12T22:38:01.937Z,90.30
2018-10-12T22:40:30.656Z,90.40
2018-10-12T22:42:59.073Z,90.40
2018-10-12T22:45:27.521Z,90.50
2018-10-12T22:47:55.947Z,90.60
2018-10-12T22:50:24.409Z,90.60
2018-10-12T22:52:52.884Z,90.70
2018-10-12T22:55:21.352Z,90.70
2018-10-12T22:57:54.299Z,90.70
2018-10-12T23:00:22.930Z,90.70
2018-10-12T23:02:51.369Z,90.80
2018-10-12T23:05:19.937Z,90.90
2018-10-12T23:07:48.503Z,90.90
2018-10-12T23:10:17.021Z,91.00
2018-10-12T23:12:45.710Z,91.00
2018-10-12T23:15:14.196Z,91.00
2018-10-12T23:17:42.677Z,91.00
2018-10-12T23:20:11.124Z,91.10
2018-10-12T23:22:39.529Z,91.10
2018-10-12T23:25:07.920Z,91.20
2018-10-12T23:27:37.010Z,91.20
2018-10-12T23:30:06.188Z,91.30
2018-10-12T23:32:34.609Z,91.30
2018-10-12T23:35:03.232Z,91.40
2018-10-12T23:37:31.770Z,91.40
2018-10-12T23:40:00.197Z,91.50
2018-10-12T23:42:28.675Z,91.50
2018-10-12T23:44:57.224Z,91.60
2018-10-12T23:47:25.953Z,91.70
2018-10-12T23:49:54.500Z,91.70
2018-10-12T23:52:22.980Z,91.80
2018-10-12T23:54:51.431Z,91.80
2018-10-12T23:57:19.913Z,91.90
2018-10-12T23:59:48.433Z,92.10
